sensor_id;sensor_type;location;lat;lon;timestamp;temperature;humidity
7516;DHT22;3799;47.184;8.538;2023-12-20T00:02:08;3.80;99.90
7516;DHT22;3799;47.184;8.538;2023-12-20T00:04:35;3.70;99.90
7516;DHT22;3799;47.184;8.538;2023-12-20T00:07:03;3.80;99.90
7516;DHT22;3799;47.184;8.538;2023-12-20T00:09:30;3.80;99.90
7516;DHT22;3799;47.184;8.538;2023-12-20T00:11:58;3.80;99.90
7516;DHT22;3799;47.184;8.538;2023-12-20T00:14:25;3.80;99.90
7516;DHT22;3799;47.184;8.538;2023-12-20T00:16:53;3.90;99.90
7516;DHT22;3799;47.184;8.538;2023-12-20T00:19:20;3.60;99.90
7516;DHT22;3799;47.184;8.538;2023-12-20T00:21:47;3.70;99.90
7516;DHT22;3799;47.184;8.538;2023-12-20T00:24:14;3.90;99.90
7516;DHT22;3799;47.184;8.538;2023-12-20T00:26:42;3.80;99.90
7516;DHT22;3799;47.184;8.538;2023-12-20T00:29:09;3.70;99.90
7516;DHT22;3799;47.184;8.538;2023-12-20T00:31:37;3.70;99.90
7516;DHT22;3799;47.184;8.538;2023-12-20T00:34:04;3.80;99.90
7516;DHT22;3799;47.184;8.538;2023-12-20T00:36:32;3.80;99.90
7516;DHT22;3799;47.184;8.538;2023-12-20T00:38:59;3.80;99.90
7516;DHT22;3799;47.184;8.538;2023-12-20T00:41:27;3.80;99.90
7516;DHT22;3799;47.184;8.538;2023-12-20T00:43:55;4.00;99.90
7516;DHT22;3799;47.184;8.538;2023-12-20T00:46:22;3.90;99.90
7516;DHT22;3799;47.184;8.538;2023-12-20T00:48:51;4.00;99.90
7516;DHT22;3799;47.184;8.538;2023-12-20T00:51:18;4.10;99.90
7516;DHT22;3799;47.184;8.538;2023-12-20T00:53:45;4.00;99.90
7516;DHT22;3799;47.184;8.538;2023-12-20T00:56:17;4.10;99.90
7516;DHT22;3799;47.184;8.538;2023-12-20T00:58:44;4.00;99.90
7516;DHT22;3799;47.184;8.538;2023-12-20T01:01:11;4.10;99.90
7516;DHT22;3799;47.184;8.538;2023-12-20T01:03:38;3.90;99.90
7516;DHT22;3799;47.184;8.538;2023-12-20T01:06:08;4.20;99.90
7516;DHT22;3799;47.184;8.538;2023-12-20T01:08:35;4.20;99.90
7516;DHT22;3799;47.184;8.538;2023-12-20T01:11:04;4.00;99.90
7516;DHT22;3799;47.184;8.538;2023-12-20T01:13:32;4.30;99.90
7516;DHT22;3799;47.184;8.538;2023-12-20T01:15:59;4.00;99.90
7516;DHT22;3799;47.184;8.538;2023-12-20T01:18:28;4.20;99.90
7516;DHT22;3799;47.184;8.538;2023-12-20T01:20:55;4.00;99.90
7516;DHT22;3799;47.184;8.538;2023-12-20T01:23:22;4.00;99.90
7516;DHT22;3799;47.184;8.538;2023-12-20T01:25:49;4.30;99.90
7516;DHT22;3799;47.184;8.538;2023-12-20T01:28:17;4.10;99.90
7516;DHT22;3799;47.184;8.538;2023-12-20T01:30:44;4.10;99.90
7516;DHT22;3799;47.184;8.538;2023-12-20T01:33:12;3.90;99.90
7516;DHT22;3799;47.184;8.538;2023-12-20T01:35:39;4.10;99.90
7516;DHT22;3799;47.184;8.538;2023-12-20T01:38:06;4.00;99.90
7516;DHT22;3799;47.184;8.538;2023-12-20T01:40:33;4.00;99.90
7516;DHT22;3799;47.184;8.538;2023-12-20T01:43:04;4.00;99.90
7516;DHT22;3799;47.184;8.538;2023-12-20T01:45:32;4.00;99.90
7516;DHT22;3799;47.184;8.538;2023-12-20T01:47:59;4.10;99.90
7516;DHT22;3799;47.184;8.538;2023-12-20T01:50:28;4.10;99.90
7516;DHT22;3799;47.184;8.538;2023-12-20T01:52:59;3.70;99.90
7516;DHT22;3799;47.184;8.538;2023-12-20T01:55:31;3.80;99.90
7516;DHT22;3799;47.184;8.538;2023-12-20T01:57:59;3.90;99.90
7516;DHT22;3799;47.184;8.538;2023-12-20T02:00:28;3.80;99.90
7516;DHT22;3799;47.184;8.538;2023-12-20T02:02:56;3.70;99.90
7516;DHT22;3799;47.184;8.538;2023-12-20T02:05:24;3.80;99.90
7516;DHT22;3799;47.184;8.538;2023-12-20T02:07:52;3.80;99.90
7516;DHT22;3799;47.184;8.538;2023-12-20T02:10:20;4.10;99.90
7516;DHT22;3799;47.184;8.538;2023-12-20T02:12:48;4.10;99.90
7516;DHT22;3799;47.184;8.538;2023-12-20T02:15:15;3.80;99.90
7516;DHT22;3799;47.184;8.538;2023-12-20T02:17:44;4.00;99.90
7516;DHT22;3799;47.184;8.538;2023-12-20T02:20:12;4.00;99.90
7516;DHT22;3799;47.184;8.538;2023-12-20T02:22:39;4.20;99.90
7516;DHT22;3799;47.184;8.538;2023-12-20T02:25:07;4.40;99.90
7516;DHT22;3799;47.184;8.538;2023-12-20T02:27:35;4.10;99.90
7516;DHT22;3799;47.184;8.538;2023-12-20T02:30:02;4.20;99.90
7516;DHT22;3799;47.184;8.538;2023-12-20T02:32:30;4.50;99.90
7516;DHT22;3799;47.184;8.538;2023-12-20T02:34:57;4.50;99.90
7516;DHT22;3799;47.184;8.538;2023-12-20T02:37:25;4.30;99.90
7516;DHT22;3799;47.184;8.538;2023-12-20T02:39:52;4.40;99.90
7516;DHT22;3799;47.184;8.538;2023-12-20T02:42:19;4.50;99.90
7516;DHT22;3799;47.184;8.538;2023-12-20T02:44:47;4.50;99.90
7516;DHT22;3799;47.184;8.538;2023-12-20T02:47:14;4.40;99.90
7516;DHT22;3799;47.184;8.538;2023-12-20T02:49:41;4.80;99.90
7516;DHT22;3799;47.184;8.538;2023-12-20T02:52:09;4.70;99.90
7516;DHT22;3799;47.184;8.538;2023-12-20T02:54:36;4.60;99.90
7516;DHT22;3799;47.184;8.538;2023-12-20T02:57:03;4.60;99.90
7516;DHT22;3799;47.184;8.538;2023-12-20T02:59:31;4.70;99.90
7516;DHT22;3799;47.184;8.538;2023-12-20T03:01:58;4.90;99.90
7516;DHT22;3799;47.184;8.538;2023-12-20T03:04:25;4.80;99.90
7516;DHT22;3799;47.184;8.538;2023-12-20T03:06:53;4.90;99.90
7516;DHT22;3799;47.184;8.538;2023-12-20T03:09:20;4.80;99.90
7516;DHT22;3799;47.184;8.538;2023-12-20T03:11:47;4.70;99.90
7516;DHT22;3799;47.184;8.538;2023-12-20T03:14:14;4.40;99.90
7516;DHT22;3799;47.184;8.538;2023-12-20T03:16:42;4.40;99.90
7516;DHT22;3799;47.184;8.538;2023-12-20T03:19:13;4.70;99.90
7516;DHT22;3799;47.184;8.538;2023-12-20T03:21:40;4.60;99.90
7516;DHT22;3799;47.184;8.538;2023-12-20T03:24:07;4.70;99.90
7516;DHT22;3799;47.184;8.538;2023-12-20T03:26:35;4.50;99.90
7516;DHT22;3799;47.184;8.538;2023-12-20T03:29:02;4.50;99.90
7516;DHT22;3799;47.184;8.538;2023-12-20T03:31:29;4.60;99.90
7516;DHT22;3799;47.184;8.538;2023-12-20T03:33:57;4.80;99.90
7516;DHT22;3799;47.184;8.538;2023-12-20T03:36:24;4.70;99.90
7516;DHT22;3799;47.184;8.538;2023-12-20T03:38:51;4.60;99.90
7516;DHT22;3799;47.184;8.538;2023-12-20T03:41:19;4.60;99.90
7516;DHT22;3799;47.184;8.538;2023-12-20T03:43:46;4.70;99.90
7516;DHT22;3799;47.184;8.538;2023-12-20T03:46:13;4.80;99.90
7516;DHT22;3799;47.184;8.538;2023-12-20T03:48:40;4.80;99.90
7516;DHT22;3799;47.184;8.538;2023-12-20T03:51:07;4.60;99.90
7516;DHT22;3799;47.184;8.538;2023-12-20T03:53:35;4.80;99.90
7516;DHT22;3799;47.184;8.538;2023-12-20T03:56:02;4.80;99.90
7516;DHT22;3799;47.184;8.538;2023-12-20T03:58:29;5.00;99.90
7516;DHT22;3799;47.184;8.538;2023-12-20T04:00:56;4.80;99.90
7516;DHT22;3799;47.184;8.538;2023-12-20T04:03:24;4.90;99.90
7516;DHT22;3799;47.184;8.538;2023-12-20T04:05:51;5.00;99.90
7516;DHT22;3799;47.184;8.538;2023-12-20T04:08:18;4.90;99.90
7516;DHT22;3799;47.184;8.538;2023-12-20T04:10:45;4.90;99.90
7516;DHT22;3799;47.184;8.538;2023-12-20T04:13:12;5.00;99.90
7516;DHT22;3799;47.184;8.538;2023-12-20T04:15:40;5.00;99.90
7516;DHT22;3799;47.184;8.538;2023-12-20T04:18:07;4.90;99.90
7516;DHT22;3799;47.184;8.538;2023-12-20T04:20:35;5.10;99.90
7516;DHT22;3799;47.184;8.538;2023-12-20T04:23:02;5.10;99.90
7516;DHT22;3799;47.184;8.538;2023-12-20T04:25:29;5.00;99.90
7516;DHT22;3799;47.184;8.538;2023-12-20T04:27:56;5.30;99.90
7516;DHT22;3799;47.184;8.538;2023-12-20T04:30:24;4.90;99.90
7516;DHT22;3799;47.184;8.538;2023-12-20T04:32:51;5.30;99.90
7516;DHT22;3799;47.184;8.538;2023-12-20T04:35:18;5.20;99.90
7516;DHT22;3799;47.184;8.538;2023-12-20T04:37:45;5.20;99.90
7516;DHT22;3799;47.184;8.538;2023-12-20T04:40:13;5.00;99.90
7516;DHT22;3799;47.184;8.538;2023-12-20T04:42:40;4.90;99.90
7516;DHT22;3799;47.184;8.538;2023-12-20T04:45:08;5.10;99.90
7516;DHT22;3799;47.184;8.538;2023-12-20T04:47:35;5.20;99.90
7516;DHT22;3799;47.184;8.538;2023-12-20T04:50:02;5.00;99.90
7516;DHT22;3799;47.184;8.538;2023-12-20T04:52:31;4.80;99.90
7516;DHT22;3799;47.184;8.538;2023-12-20T04:54:58;4.90;99.90
7516;DHT22;3799;47.184;8.538;2023-12-20T04:57:26;4.90;99.90
7516;DHT22;3799;47.184;8.538;2023-12-20T04:59:53;5.00;99.90
7516;DHT22;3799;47.184;8.538;2023-12-20T05:02:21;5.10;99.90
7516;DHT22;3799;47.184;8.538;2023-12-20T05:04:48;5.00;99.90
7516;DHT22;3799;47.184;8.538;2023-12-20T05:07:16;5.20;99.90
7516;DHT22;3799;47.184;8.538;2023-12-20T05:09:43;5.00;99.90
7516;DHT22;3799;47.184;8.538;2023-12-20T05:12:10;5.40;99.90
7516;DHT22;3799;47.184;8.538;2023-12-20T05:14:37;5.10;99.90
7516;DHT22;3799;47.184;8.538;2023-12-20T05:17:05;5.10;99.90
7516;DHT22;3799;47.184;8.538;2023-12-20T05:19:32;5.30;99.90
7516;DHT22;3799;47.184;8.538;2023-12-20T05:22:02;5.30;99.90
7516;DHT22;3799;47.184;8.538;2023-12-20T05:24:29;5.20;99.90
7516;DHT22;3799;47.184;8.538;2023-12-20T05:26:57;5.30;99.90
7516;DHT22;3799;47.184;8.538;2023-12-20T05:29:24;5.30;99.90
7516;DHT22;3799;47.184;8.538;2023-12-20T05:31:51;5.60;99.90
7516;DHT22;3799;47.184;8.538;2023-12-20T05:34:18;5.40;99.90
7516;DHT22;3799;47.184;8.538;2023-12-20T05:36:46;5.40;99.90
7516;DHT22;3799;47.184;8.538;2023-12-20T05:39:13;5.80;99.90
7516;DHT22;3799;47.184;8.538;2023-12-20T05:41:40;5.60;99.90
7516;DHT22;3799;47.184;8.538;2023-12-20T05:44:08;5.60;99.90
7516;DHT22;3799;47.184;8.538;2023-12-20T05:46:35;5.70;99.90
7516;DHT22;3799;47.184;8.538;2023-12-20T05:49:02;5.80;99.90
7516;DHT22;3799;47.184;8.538;2023-12-20T05:51:29;5.90;99.90
7516;DHT22;3799;47.184;8.538;2023-12-20T05:53:57;5.60;99.90
7516;DHT22;3799;47.184;8.538;2023-12-20T05:56:24;6.00;99.90
7516;DHT22;3799;47.184;8.538;2023-12-20T05:58:51;5.90;99.90
7516;DHT22;3799;47.184;8.538;2023-12-20T06:01:18;5.70;99.90
7516;DHT22;3799;47.184;8.538;2023-12-20T06:03:46;5.90;99.90
7516;DHT22;3799;47.184;8.538;2023-12-20T06:06:13;5.80;99.90
7516;DHT22;3799;47.184;8.538;2023-12-20T06:08:43;5.90;99.90
7516;DHT22;3799;47.184;8.538;2023-12-20T06:11:11;6.00;99.90
7516;DHT22;3799;47.184;8.538;2023-12-20T06:13:38;5.60;99.90
7516;DHT22;3799;47.184;8.538;2023-12-20T06:16:06;5.50;99.90
7516;DHT22;3799;47.184;8.538;2023-12-20T06:18:37;5.70;99.90
7516;DHT22;3799;47.184;8.538;2023-12-20T06:21:04;5.60;99.90
7516;DHT22;3799;47.184;8.538;2023-12-20T06:23:31;5.90;99.90
7516;DHT22;3799;47.184;8.538;2023-12-20T06:25:59;5.70;99.90
7516;DHT22;3799;47.184;8.538;2023-12-20T06:28:26;6.00;99.90
7516;DHT22;3799;47.184;8.538;2023-12-20T06:30:53;6.00;99.90
7516;DHT22;3799;47.184;8.538;2023-12-20T06:33:22;6.10;99.90
7516;DHT22;3799;47.184;8.538;2023-12-20T06:35:49;6.20;99.90
7516;DHT22;3799;47.184;8.538;2023-12-20T06:38:18;6.20;99.90
7516;DHT22;3799;47.184;8.538;2023-12-20T06:40:45;6.10;99.90
7516;DHT22;3799;47.184;8.538;2023-12-20T06:43:13;5.90;99.90
7516;DHT22;3799;47.184;8.538;2023-12-20T06:45:58;6.10;99.90
7516;DHT22;3799;47.184;8.538;2023-12-20T06:48:27;6.10;99.90
7516;DHT22;3799;47.184;8.538;2023-12-20T06:50:54;6.00;99.90
7516;DHT22;3799;47.184;8.538;2023-12-20T06:53:21;6.00;99.90
7516;DHT22;3799;47.184;8.538;2023-12-20T06:55:49;6.10;99.90
7516;DHT22;3799;47.184;8.538;2023-12-20T06:58:16;6.30;99.90
7516;DHT22;3799;47.184;8.538;2023-12-20T07:00:43;6.20;99.90
7516;DHT22;3799;47.184;8.538;2023-12-20T07:03:11;6.10;99.90
7516;DHT22;3799;47.184;8.538;2023-12-20T07:05:38;6.20;99.90
7516;DHT22;3799;47.184;8.538;2023-12-20T07:08:06;6.10;99.90
7516;DHT22;3799;47.184;8.538;2023-12-20T07:10:33;6.10;99.90
7516;DHT22;3799;47.184;8.538;2023-12-20T07:13:05;6.00;99.90
7516;DHT22;3799;47.184;8.538;2023-12-20T07:15:33;6.40;99.90
7516;DHT22;3799;47.184;8.538;2023-12-20T07:18:00;6.40;99.90
7516;DHT22;3799;47.184;8.538;2023-12-20T07:20:27;6.40;99.90
7516;DHT22;3799;47.184;8.538;2023-12-20T07:22:55;6.10;99.90
7516;DHT22;3799;47.184;8.538;2023-12-20T07:25:22;6.50;99.90
7516;DHT22;3799;47.184;8.538;2023-12-20T07:27:50;6.00;99.90
7516;DHT22;3799;47.184;8.538;2023-12-20T07:30:18;6.40;99.90
7516;DHT22;3799;47.184;8.538;2023-12-20T07:32:45;6.10;99.90
7516;DHT22;3799;47.184;8.538;2023-12-20T07:35:13;6.30;99.90
7516;DHT22;3799;47.184;8.538;2023-12-20T07:37:40;6.40;99.90
7516;DHT22;3799;47.184;8.538;2023-12-20T07:40:08;6.10;99.90
7516;DHT22;3799;47.184;8.538;2023-12-20T07:42:36;6.40;99.90
7516;DHT22;3799;47.184;8.538;2023-12-20T07:45:03;6.40;99.90
7516;DHT22;3799;47.184;8.538;2023-12-20T07:47:31;6.40;99.90
7516;DHT22;3799;47.184;8.538;2023-12-20T07:49:58;6.30;99.90
7516;DHT22;3799;47.184;8.538;2023-12-20T07:52:26;6.40;99.90
7516;DHT22;3799;47.184;8.538;2023-12-20T07:54:53;6.50;99.90
7516;DHT22;3799;47.184;8.538;2023-12-20T07:57:20;6.10;99.90
7516;DHT22;3799;47.184;8.538;2023-12-20T07:59:48;6.10;99.90
7516;DHT22;3799;47.184;8.538;2023-12-20T08:02:15;6.30;99.90
7516;DHT22;3799;47.184;8.538;2023-12-20T08:04:42;6.30;99.90
7516;DHT22;3799;47.184;8.538;2023-12-20T08:07:09;6.30;99.90
7516;DHT22;3799;47.184;8.538;2023-12-20T08:09:36;6.30;99.90
7516;DHT22;3799;47.184;8.538;2023-12-20T08:12:04;6.30;99.90
7516;DHT22;3799;47.184;8.538;2023-12-20T08:14:31;6.20;99.90
7516;DHT22;3799;47.184;8.538;2023-12-20T08:16:58;6.10;99.90
7516;DHT22;3799;47.184;8.538;2023-12-20T08:19:25;6.30;99.90
7516;DHT22;3799;47.184;8.538;2023-12-20T08:21:53;6.10;99.90
7516;DHT22;3799;47.184;8.538;2023-12-20T08:24:20;6.40;99.90
7516;DHT22;3799;47.184;8.538;2023-12-20T08:26:47;6.30;99.90
7516;DHT22;3799;47.184;8.538;2023-12-20T08:29:15;6.30;99.90
7516;DHT22;3799;47.184;8.538;2023-12-20T08:31:42;6.30;99.90
7516;DHT22;3799;47.184;8.538;2023-12-20T08:34:09;6.40;99.90
7516;DHT22;3799;47.184;8.538;2023-12-20T08:36:38;6.40;99.90
7516;DHT22;3799;47.184;8.538;2023-12-20T08:39:06;6.20;99.90
7516;DHT22;3799;47.184;8.538;2023-12-20T08:41:35;6.30;99.90
7516;DHT22;3799;47.184;8.538;2023-12-20T08:44:02;6.40;99.90
7516;DHT22;3799;47.184;8.538;2023-12-20T08:46:29;6.40;99.90
7516;DHT22;3799;47.184;8.538;2023-12-20T08:48:57;6.50;99.90
7516;DHT22;3799;47.184;8.538;2023-12-20T08:51:24;6.30;99.90
7516;DHT22;3799;47.184;8.538;2023-12-20T08:53:52;6.50;99.90
7516;DHT22;3799;47.184;8.538;2023-12-20T08:56:20;6.40;99.90
7516;DHT22;3799;47.184;8.538;2023-12-20T08:58:56;6.50;99.90
7516;DHT22;3799;47.184;8.538;2023-12-20T09:01:30;6.20;99.90
7516;DHT22;3799;47.184;8.538;2023-12-20T09:03:58;6.40;99.90
7516;DHT22;3799;47.184;8.538;2023-12-20T09:06:25;6.40;99.90
7516;DHT22;3799;47.184;8.538;2023-12-20T09:08:52;6.40;99.90
7516;DHT22;3799;47.184;8.538;2023-12-20T09:11:19;6.40;99.90
7516;DHT22;3799;47.184;8.538;2023-12-20T09:13:47;6.40;99.90
7516;DHT22;3799;47.184;8.538;2023-12-20T09:16:14;6.40;99.90
7516;DHT22;3799;47.184;8.538;2023-12-20T09:18:43;6.30;99.90
7516;DHT22;3799;47.184;8.538;2023-12-20T09:21:10;6.30;99.90
7516;DHT22;3799;47.184;8.538;2023-12-20T09:23:37;6.30;99.90
7516;DHT22;3799;47.184;8.538;2023-12-20T09:26:05;6.20;99.90
7516;DHT22;3799;47.184;8.538;2023-12-20T09:28:32;6.10;99.90
7516;DHT22;3799;47.184;8.538;2023-12-20T09:31:04;6.20;99.90
7516;DHT22;3799;47.184;8.538;2023-12-20T09:33:35;6.40;99.90
7516;DHT22;3799;47.184;8.538;2023-12-20T09:36:03;6.20;99.90
7516;DHT22;3799;47.184;8.538;2023-12-20T09:38:30;6.30;99.90
7516;DHT22;3799;47.184;8.538;2023-12-20T09:40:57;6.40;99.90
7516;DHT22;3799;47.184;8.538;2023-12-20T09:43:24;6.20;99.90
7516;DHT22;3799;47.184;8.538;2023-12-20T09:46:00;6.20;99.90
7516;DHT22;3799;47.184;8.538;2023-12-20T09:48:29;6.20;99.90
7516;DHT22;3799;47.184;8.538;2023-12-20T09:50:57;6.40;99.90
7516;DHT22;3799;47.184;8.538;2023-12-20T09:53:25;6.10;99.90
7516;DHT22;3799;47.184;8.538;2023-12-20T09:55:59;6.10;99.90
7516;DHT22;3799;47.184;8.538;2023-12-20T09:58:29;6.40;99.90
7516;DHT22;3799;47.184;8.538;2023-12-20T10:00:57;6.60;99.90
7516;DHT22;3799;47.184;8.538;2023-12-20T10:03:25;6.40;99.90
7516;DHT22;3799;47.184;8.538;2023-12-20T10:05:57;6.30;99.90
7516;DHT22;3799;47.184;8.538;2023-12-20T10:08:25;6.20;99.90
7516;DHT22;3799;47.184;8.538;2023-12-20T10:10:54;6.40;99.90
7516;DHT22;3799;47.184;8.538;2023-12-20T10:13:22;6.50;99.90
7516;DHT22;3799;47.184;8.538;2023-12-20T10:15:50;6.20;99.90
7516;DHT22;3799;47.184;8.538;2023-12-20T10:18:17;6.50;99.90
7516;DHT22;3799;47.184;8.538;2023-12-20T10:20:45;6.20;99.90
7516;DHT22;3799;47.184;8.538;2023-12-20T10:23:22;6.20;99.90
7516;DHT22;3799;47.184;8.538;2023-12-20T10:25:59;6.40;99.90
7516;DHT22;3799;47.184;8.538;2023-12-20T10:28:27;6.50;99.90
7516;DHT22;3799;47.184;8.538;2023-12-20T10:31:03;6.40;99.90
7516;DHT22;3799;47.184;8.538;2023-12-20T10:33:35;6.40;99.90
7516;DHT22;3799;47.184;8.538;2023-12-20T10:36:02;6.50;99.90
7516;DHT22;3799;47.184;8.538;2023-12-20T10:38:30;6.30;99.90
7516;DHT22;3799;47.184;8.538;2023-12-20T10:40:58;6.40;99.90
7516;DHT22;3799;47.184;8.538;2023-12-20T10:43:28;6.30;99.90
7516;DHT22;3799;47.184;8.538;2023-12-20T10:45:57;6.50;99.90
7516;DHT22;3799;47.184;8.538;2023-12-20T10:48:25;6.70;99.90
7516;DHT22;3799;47.184;8.538;2023-12-20T10:50:57;6.60;99.90
7516;DHT22;3799;47.184;8.538;2023-12-20T10:53:25;6.60;99.90
7516;DHT22;3799;47.184;8.538;2023-12-20T10:55:56;6.90;99.90
7516;DHT22;3799;47.184;8.538;2023-12-20T10:58:29;6.80;99.90
7516;DHT22;3799;47.184;8.538;2023-12-20T11:01:01;6.80;99.90
7516;DHT22;3799;47.184;8.538;2023-12-20T11:03:35;6.70;99.90
7516;DHT22;3799;47.184;8.538;2023-12-20T11:06:27;6.50;99.90
7516;DHT22;3799;47.184;8.538;2023-12-20T11:14:51;6.70;99.90
7516;DHT22;3799;47.184;8.538;2023-12-20T11:17:19;6.90;99.90
7516;DHT22;3799;47.184;8.538;2023-12-20T11:22:21;6.90;99.90
7516;DHT22;3799;47.184;8.538;2023-12-20T11:24:49;7.20;99.90
7516;DHT22;3799;47.184;8.538;2023-12-20T11:27:19;7.10;99.90
7516;DHT22;3799;47.184;8.538;2023-12-20T11:29:52;7.00;99.90
7516;DHT22;3799;47.184;8.538;2023-12-20T11:35:38;7.10;99.90
7516;DHT22;3799;47.184;8.538;2023-12-20T11:37:47;7.00;99.90
7516;DHT22;3799;47.184;8.538;2023-12-20T11:40:17;6.90;99.90
7516;DHT22;3799;47.184;8.538;2023-12-20T11:42:48;6.90;99.90
7516;DHT22;3799;47.184;8.538;2023-12-20T11:45:19;7.00;99.90
7516;DHT22;3799;47.184;8.538;2023-12-20T11:47:49;7.10;99.90
7516;DHT22;3799;47.184;8.538;2023-12-20T11:50:18;7.10;99.90
7516;DHT22;3799;47.184;8.538;2023-12-20T11:52:47;7.20;99.90
7516;DHT22;3799;47.184;8.538;2023-12-20T11:55:15;6.80;99.90
7516;DHT22;3799;47.184;8.538;2023-12-20T11:57:44;7.10;99.90
7516;DHT22;3799;47.184;8.538;2023-12-20T12:00:13;7.10;99.90
7516;DHT22;3799;47.184;8.538;2023-12-20T12:02:45;7.10;99.90
7516;DHT22;3799;47.184;8.538;2023-12-20T12:05:21;7.10;99.90
7516;DHT22;3799;47.184;8.538;2023-12-20T12:07:49;7.10;99.90
7516;DHT22;3799;47.184;8.538;2023-12-20T12:10:16;7.20;99.90
7516;DHT22;3799;47.184;8.538;2023-12-20T12:12:43;7.00;99.90
7516;DHT22;3799;47.184;8.538;2023-12-20T12:15:11;7.10;99.90
7516;DHT22;3799;47.184;8.538;2023-12-20T12:17:38;7.30;99.90
7516;DHT22;3799;47.184;8.538;2023-12-20T12:20:06;7.10;99.90
7516;DHT22;3799;47.184;8.538;2023-12-20T12:22:36;7.00;99.90
7516;DHT22;3799;47.184;8.538;2023-12-20T12:25:11;7.30;99.90
7516;DHT22;3799;47.184;8.538;2023-12-20T12:27:41;7.00;99.90
7516;DHT22;3799;47.184;8.538;2023-12-20T12:30:09;7.20;99.90
7516;DHT22;3799;47.184;8.538;2023-12-20T12:32:37;6.80;99.90
7516;DHT22;3799;47.184;8.538;2023-12-20T12:35:06;7.10;99.90
7516;DHT22;3799;47.184;8.538;2023-12-20T12:37:34;7.00;99.90
7516;DHT22;3799;47.184;8.538;2023-12-20T12:40:05;6.70;99.90
7516;DHT22;3799;47.184;8.538;2023-12-20T12:42:32;6.70;99.90
7516;DHT22;3799;47.184;8.538;2023-12-20T12:44:59;6.90;99.90
7516;DHT22;3799;47.184;8.538;2023-12-20T12:47:26;6.80;99.90
7516;DHT22;3799;47.184;8.538;2023-12-20T12:49:54;6.90;99.90
7516;DHT22;3799;47.184;8.538;2023-12-20T12:52:21;6.70;99.90
7516;DHT22;3799;47.184;8.538;2023-12-20T12:54:50;6.70;99.90
7516;DHT22;3799;47.184;8.538;2023-12-20T12:57:17;6.70;99.90
7516;DHT22;3799;47.184;8.538;2023-12-20T12:59:45;6.70;99.90
7516;DHT22;3799;47.184;8.538;2023-12-20T13:02:13;6.60;99.90
7516;DHT22;3799;47.184;8.538;2023-12-20T13:04:41;6.60;99.90
7516;DHT22;3799;47.184;8.538;2023-12-20T13:07:09;6.70;99.90
7516;DHT22;3799;47.184;8.538;2023-12-20T13:09:40;6.60;99.90
7516;DHT22;3799;47.184;8.538;2023-12-20T13:12:07;6.30;99.90
7516;DHT22;3799;47.184;8.538;2023-12-20T13:14:35;6.70;99.90
7516;DHT22;3799;47.184;8.538;2023-12-20T13:17:06;6.80;99.90
7516;DHT22;3799;47.184;8.538;2023-12-20T13:19:33;6.70;99.90
7516;DHT22;3799;47.184;8.538;2023-12-20T13:22:01;6.70;99.90
7516;DHT22;3799;47.184;8.538;2023-12-20T13:24:28;6.80;99.90
7516;DHT22;3799;47.184;8.538;2023-12-20T13:26:56;6.70;99.90
7516;DHT22;3799;47.184;8.538;2023-12-20T13:29:24;6.70;99.90
7516;DHT22;3799;47.184;8.538;2023-12-20T13:31:54;6.70;99.90
7516;DHT22;3799;47.184;8.538;2023-12-20T13:34:21;6.70;99.90
7516;DHT22;3799;47.184;8.538;2023-12-20T13:36:49;6.90;99.90
7516;DHT22;3799;47.184;8.538;2023-12-20T13:39:18;6.60;99.90
7516;DHT22;3799;47.184;8.538;2023-12-20T13:41:45;6.80;99.90
7516;DHT22;3799;47.184;8.538;2023-12-20T13:44:12;6.60;99.90
7516;DHT22;3799;47.184;8.538;2023-12-20T13:46:41;6.70;99.90
7516;DHT22;3799;47.184;8.538;2023-12-20T13:49:08;6.80;99.90
7516;DHT22;3799;47.184;8.538;2023-12-20T13:51:36;6.60;99.90
7516;DHT22;3799;47.184;8.538;2023-12-20T13:54:03;6.60;99.90
7516;DHT22;3799;47.184;8.538;2023-12-20T13:56:30;6.60;99.90
7516;DHT22;3799;47.184;8.538;2023-12-20T13:59:00;6.70;99.90
7516;DHT22;3799;47.184;8.538;2023-12-20T14:01:27;6.60;99.90
7516;DHT22;3799;47.184;8.538;2023-12-20T14:03:55;6.70;99.90
7516;DHT22;3799;47.184;8.538;2023-12-20T14:06:22;6.70;99.90
7516;DHT22;3799;47.184;8.538;2023-12-20T14:08:49;6.70;99.90
7516;DHT22;3799;47.184;8.538;2023-12-20T14:11:16;6.60;99.90
7516;DHT22;3799;47.184;8.538;2023-12-20T14:13:44;6.70;99.90
7516;DHT22;3799;47.184;8.538;2023-12-20T14:16:11;6.70;99.90
7516;DHT22;3799;47.184;8.538;2023-12-20T14:18:39;6.60;99.90
7516;DHT22;3799;47.184;8.538;2023-12-20T14:21:07;6.60;99.90
7516;DHT22;3799;47.184;8.538;2023-12-20T14:23:34;6.40;99.90
7516;DHT22;3799;47.184;8.538;2023-12-20T14:26:02;6.70;99.90
7516;DHT22;3799;47.184;8.538;2023-12-20T14:28:30;6.40;99.90
7516;DHT22;3799;47.184;8.538;2023-12-20T14:30:57;6.30;99.90
7516;DHT22;3799;47.184;8.538;2023-12-20T14:33:25;6.20;99.90
7516;DHT22;3799;47.184;8.538;2023-12-20T14:35:53;6.40;99.90
7516;DHT22;3799;47.184;8.538;2023-12-20T14:38:21;6.10;99.90
7516;DHT22;3799;47.184;8.538;2023-12-20T14:40:48;6.20;99.90
7516;DHT22;3799;47.184;8.538;2023-12-20T14:43:15;6.20;99.90
7516;DHT22;3799;47.184;8.538;2023-12-20T14:45:43;6.10;99.90
7516;DHT22;3799;47.184;8.538;2023-12-20T14:48:10;6.10;99.90
7516;DHT22;3799;47.184;8.538;2023-12-20T14:50:38;5.90;99.90
7516;DHT22;3799;47.184;8.538;2023-12-20T14:53:07;5.90;99.90
7516;DHT22;3799;47.184;8.538;2023-12-20T14:55:35;6.30;99.90
7516;DHT22;3799;47.184;8.538;2023-12-20T14:58:02;6.00;99.90
7516;DHT22;3799;47.184;8.538;2023-12-20T15:00:29;5.80;99.90
7516;DHT22;3799;47.184;8.538;2023-12-20T15:02:56;5.80;99.90
7516;DHT22;3799;47.184;8.538;2023-12-20T15:05:24;6.00;99.90
7516;DHT22;3799;47.184;8.538;2023-12-20T15:07:51;6.00;99.90
7516;DHT22;3799;47.184;8.538;2023-12-20T15:10:19;5.90;99.90
7516;DHT22;3799;47.184;8.538;2023-12-20T15:12:46;6.20;99.90
7516;DHT22;3799;47.184;8.538;2023-12-20T15:15:14;5.80;99.90
7516;DHT22;3799;47.184;8.538;2023-12-20T15:17:41;6.10;99.90
7516;DHT22;3799;47.184;8.538;2023-12-20T15:20:09;5.80;99.90
7516;DHT22;3799;47.184;8.538;2023-12-20T15:22:40;5.90;99.90
7516;DHT22;3799;47.184;8.538;2023-12-20T15:25:08;5.80;99.90
7516;DHT22;3799;47.184;8.538;2023-12-20T15:27:36;5.80;99.90
7516;DHT22;3799;47.184;8.538;2023-12-20T15:30:06;5.90;99.90
7516;DHT22;3799;47.184;8.538;2023-12-20T15:32:35;5.90;99.90
7516;DHT22;3799;47.184;8.538;2023-12-20T15:35:04;5.80;99.90
7516;DHT22;3799;47.184;8.538;2023-12-20T15:37:32;6.00;99.90
7516;DHT22;3799;47.184;8.538;2023-12-20T15:39:59;5.90;99.90
7516;DHT22;3799;47.184;8.538;2023-12-20T15:42:32;5.80;99.90
7516;DHT22;3799;47.184;8.538;2023-12-20T15:45:04;6.00;99.90
7516;DHT22;3799;47.184;8.538;2023-12-20T15:47:32;6.00;99.90
7516;DHT22;3799;47.184;8.538;2023-12-20T15:49:59;5.60;99.90
7516;DHT22;3799;47.184;8.538;2023-12-20T15:52:27;5.90;99.90
7516;DHT22;3799;47.184;8.538;2023-12-20T15:54:54;5.80;99.90
7516;DHT22;3799;47.184;8.538;2023-12-20T15:57:22;5.50;99.90
7516;DHT22;3799;47.184;8.538;2023-12-20T15:59:51;5.90;99.90
7516;DHT22;3799;47.184;8.538;2023-12-20T16:02:18;5.60;99.90
7516;DHT22;3799;47.184;8.538;2023-12-20T16:04:46;5.50;99.90
7516;DHT22;3799;47.184;8.538;2023-12-20T16:07:13;5.70;99.90
7516;DHT22;3799;47.184;8.538;2023-12-20T16:09:41;5.80;99.90
7516;DHT22;3799;47.184;8.538;2023-12-20T16:12:08;5.50;99.90
7516;DHT22;3799;47.184;8.538;2023-12-20T16:14:37;5.50;99.90
7516;DHT22;3799;47.184;8.538;2023-12-20T16:17:05;5.60;99.90
7516;DHT22;3799;47.184;8.538;2023-12-20T16:19:32;5.80;99.90
7516;DHT22;3799;47.184;8.538;2023-12-20T16:22:00;5.50;99.90
7516;DHT22;3799;47.184;8.538;2023-12-20T16:24:31;5.50;99.90
7516;DHT22;3799;47.184;8.538;2023-12-20T16:26:59;5.50;99.90
7516;DHT22;3799;47.184;8.538;2023-12-20T16:29:26;5.40;99.90
7516;DHT22;3799;47.184;8.538;2023-12-20T16:31:54;5.40;99.90
7516;DHT22;3799;47.184;8.538;2023-12-20T16:34:21;5.40;99.90